Time;durP1;ratioP1;P1;durP2;ratioP2;P2;SDS_P1;SDS_P2;PMS_P1;PMS_P2;Temp;Humidity;BMP_temperature;BMP_pressure;BME280_temperature;BME280_humidity;BME280_pressure;Samples;Min_cycle;Max_cycle;Signal;HPM_P1;HPM_P2
2021/03/19 00:01:58;;;;;;;12.70;9.85;;;;;;;;;;5130103;27;20231;-66
2021/03/19 00:04:24;;;;;;;11.88;9.23;;;;;;;;;;5130329;28;20193;-66
2021/03/19 00:06:52;;;;;;;13.07;9.32;;;;;;;;;;5130281;28;20282;-66
2021/03/19 00:09:19;;;;;;;11.50;9.35;;;;;;;;;;5118636;28;20228;-66
2021/03/19 00:11:45;;;;;;;12.57;9.05;;;;;;;;;;5116475;28;20231;-66
2021/03/19 00:14:12;;;;;;;10.55;9.35;;;;;;;;;;5116456;28;20668;-66
2021/03/19 00:16:39;;;;;;;10.88;9.77;;;;;;;;;;5115978;28;20236;-66
2021/03/19 00:19:07;;;;;;;14.48;10.07;;;;;;;;;;5116664;28;20194;-66
2021/03/19 00:21:35;;;;;;;9.57;8.68;;;;;;;;;;5116378;28;20754;-66
2021/03/19 00:24:03;;;;;;;11.85;9.15;;;;;;;;;;5115913;28;20280;-66
2021/03/19 00:26:30;;;;;;;13.73;9.90;;;;;;;;;;5115870;28;20363;-66
2021/03/19 00:28:57;;;;;;;12.40;9.88;;;;;;;;;;5116308;28;20235;-66
2021/03/19 00:31:23;;;;;;;10.20;9.15;;;;;;;;;;5116126;28;20626;-66
2021/03/19 00:33:50;;;;;;;12.70;9.35;;;;;;;;;;5115770;28;20736;-66
2021/03/19 00:36:17;;;;;;;10.40;9.30;;;;;;;;;;5115628;28;20305;-66
2021/03/19 00:38:44;;;;;;;15.25;10.02;;;;;;;;;;5115680;28;20390;-67
2021/03/19 00:41:11;;;;;;;13.65;9.63;;;;;;;;;;5115660;28;20671;-67
2021/03/19 00:43:38;;;;;;;12.45;9.15;;;;;;;;;;5115883;28;20229;-66
2021/03/19 00:46:05;;;;;;;16.25;10.45;;;;;;;;;;5115534;28;20300;-67
2021/03/19 00:48:32;;;;;;;15.70;10.20;;;;;;;;;;5116061;28;20220;-66
2021/03/19 00:50:59;;;;;;;13.07;9.70;;;;;;;;;;5115839;28;20276;-66
2021/03/19 00:53:25;;;;;;;20.60;10.90;;;;;;;;;;5116079;28;20247;-67
2021/03/19 00:55:52;;;;;;;10.60;8.80;;;;;;;;;;5115441;28;20198;-66
2021/03/19 00:58:20;;;;;;;19.92;9.07;;;;;;;;;;5115752;28;20604;-67
2021/03/19 01:00:47;;;;;;;14.98;9.40;;;;;;;;;;5115249;28;20197;-66
2021/03/19 01:03:13;;;;;;;11.48;9.70;;;;;;;;;;5115434;28;20240;-67
2021/03/19 01:05:41;;;;;;;11.77;9.88;;;;;;;;;;5115318;28;20288;-66
2021/03/19 01:08:08;;;;;;;11.23;10.05;;;;;;;;;;5115260;28;20360;-66
2021/03/19 01:10:36;;;;;;;10.45;9.40;;;;;;;;;;5114903;28;20215;-66
2021/03/19 01:13:04;;;;;;;11.95;9.10;;;;;;;;;;5115287;28;20229;-66
2021/03/19 01:15:32;;;;;;;15.38;10.25;;;;;;;;;;5114867;28;20232;-67
2021/03/19 01:17:58;;;;;;;12.25;10.35;;;;;;;;;;5114768;28;20216;-67
2021/03/19 01:20:26;;;;;;;16.65;11.10;;;;;;;;;;5113800;28;20280;-66
2021/03/19 01:22:53;;;;;;;10.95;9.02;;;;;;;;;;5114767;28;20690;-66
2021/03/19 01:25:20;;;;;;;12.75;9.80;;;;;;;;;;5114713;28;20234;-67
2021/03/19 01:27:47;;;;;;;13.30;10.63;;;;;;;;;;5115301;28;20591;-67
2021/03/19 01:30:15;;;;;;;12.48;9.80;;;;;;;;;;5115023;28;20196;-67
2021/03/19 01:32:43;;;;;;;17.42;10.55;;;;;;;;;;5114938;28;20286;-66
2021/03/19 01:35:11;;;;;;;12.60;9.93;;;;;;;;;;5114593;28;20283;-66
2021/03/19 01:37:38;;;;;;;14.13;10.75;;;;;;;;;;5115163;28;20270;-68
2021/03/19 01:40:05;;;;;;;15.85;11.50;;;;;;;;;;5114526;28;20288;-66
2021/03/19 01:42:33;;;;;;;11.35;9.15;;;;;;;;;;5114767;28;20230;-66
2021/03/19 01:45:23;;;;;;;19.40;10.57;;;;;;;;;;5114380;28;20287;-67
2021/03/19 01:48:09;;;;;;;15.07;11.38;;;;;;;;;;5114802;28;20192;-67
2021/03/19 01:50:54;;;;;;;17.40;10.55;;;;;;;;;;5114637;28;20279;-67
2021/03/19 01:53:39;;;;;;;15.77;11.57;;;;;;;;;;5114811;28;20283;-67
2021/03/19 01:56:24;;;;;;;14.77;10.80;;;;;;;;;;5114535;28;20727;-67
2021/03/19 01:59:09;;;;;;;12.55;9.85;;;;;;;;;;5114548;28;20275;-67
2021/03/19 02:01:55;;;;;;;16.27;12.23;;;;;;;;;;5115212;28;20275;-68
2021/03/19 02:04:40;;;;;;;12.30;10.77;;;;;;;;;;5114322;28;20231;-67
2021/03/19 02:07:25;;;;;;;15.88;11.30;;;;;;;;;;5114349;28;20279;-67
2021/03/19 02:10:10;;;;;;;16.27;10.57;;;;;;;;;;5114086;28;20235;-66
2021/03/19 02:12:55;;;;;;;12.57;10.57;;;;;;;;;;5113999;28;20228;-67
2021/03/19 02:15:40;;;;;;;14.68;10.82;;;;;;;;;;5113953;28;20240;-67
2021/03/19 02:18:25;;;;;;;16.35;11.40;;;;;;;;;;5113823;28;20307;-68
2021/03/19 02:21:07;;;;;;;13.95;10.60;;;;;;;;;;5114129;28;20231;-67
2021/03/19 02:23:52;;;;;;;13.35;10.57;;;;;;;;;;5091282;28;20511;-66
2021/03/19 02:26:37;;;;;;;16.38;9.98;;;;;;;;;;5113989;28;20188;-68
2021/03/19 02:29:22;;;;;;;15.25;10.63;;;;;;;;;;5114027;28;20255;-66
2021/03/19 02:31:57;;;;;;;18.80;10.25;;;;;;;;;;5113902;28;20220;-67
2021/03/19 02:34:25;;;;;;;13.40;11.20;;;;;;;;;;5113855;28;20268;-67
2021/03/19 02:36:51;;;;;;;14.43;10.88;;;;;;;;;;5113625;28;20303;-67
2021/03/19 02:39:18;;;;;;;18.65;11.48;;;;;;;;;;5114767;28;20275;-68
2021/03/19 02:41:45;;;;;;;18.30;12.05;;;;;;;;;;5113921;28;20618;-67
2021/03/19 02:44:12;;;;;;;21.40;10.50;;;;;;;;;;5113861;28;20276;-67
2021/03/19 02:46:38;;;;;;;14.35;11.05;;;;;;;;;;5113538;28;20309;-67
2021/03/19 02:49:06;;;;;;;11.95;9.95;;;;;;;;;;5113952;28;20280;-67
2021/03/19 02:51:33;;;;;;;12.95;10.27;;;;;;;;;;5113778;28;20257;-67
2021/03/19 02:53:59;;;;;;;10.20;9.18;;;;;;;;;;5113753;28;20283;-67
2021/03/19 02:56:26;;;;;;;10.65;9.05;;;;;;;;;;5113491;28;20315;-66
2021/03/19 02:58:53;;;;;;;14.98;9.95;;;;;;;;;;5113718;28;20280;-68
2021/03/19 03:01:19;;;;;;;12.63;9.13;;;;;;;;;;5113362;28;20322;-67
2021/03/19 03:03:46;;;;;;;11.38;9.57;;;;;;;;;;5113671;28;20195;-66
2021/03/19 03:06:14;;;;;;;11.70;9.45;;;;;;;;;;5113599;28;20300;-66
2021/03/19 03:08:40;;;;;;;11.20;10.02;;;;;;;;;;5113214;28;20279;-66
2021/03/19 03:11:07;;;;;;;10.38;8.27;;;;;;;;;;5113842;28;20280;-66
2021/03/19 03:13:34;;;;;;;14.00;10.27;;;;;;;;;;5113678;28;20635;-66
2021/03/19 03:16:01;;;;;;;19.95;10.48;;;;;;;;;;5113266;28;20783;-67
2021/03/19 03:18:28;;;;;;;15.18;9.40;;;;;;;;;;5113161;28;20307;-67
2021/03/19 03:20:56;;;;;;;11.43;9.20;;;;;;;;;;5113621;28;20284;-66
2021/03/19 03:23:24;;;;;;;14.15;9.02;;;;;;;;;;5113527;28;20279;-68
2021/03/19 03:25:51;;;;;;;14.50;8.90;;;;;;;;;;5113094;28;20674;-67
2021/03/19 03:28:18;;;;;;;13.98;8.80;;;;;;;;;;5113088;28;20291;-67
2021/03/19 03:30:46;;;;;;;11.85;10.00;;;;;;;;;;5113420;28;20221;-67
2021/03/19 03:33:13;;;;;;;12.50;8.98;;;;;;;;;;5113037;28;20618;-66
2021/03/19 03:35:41;;;;;;;10.70;8.55;;;;;;;;;;5112981;28;20283;-66
2021/03/19 03:38:09;;;;;;;13.52;9.68;;;;;;;;;;5113236;28;20305;-67
2021/03/19 03:40:38;;;;;;;11.25;8.02;;;;;;;;;;5112968;28;20288;-67
2021/03/19 03:43:05;;;;;;;10.52;8.00;;;;;;;;;;5114299;28;20224;-67
2021/03/19 03:45:31;;;;;;;12.25;9.40;;;;;;;;;;5117618;28;20284;-67
2021/03/19 03:47:58;;;;;;;11.95;7.35;;;;;;;;;;5116759;28;20371;-66
2021/03/19 03:50:27;;;;;;;11.73;9.07;;;;;;;;;;5116561;28;20285;-68
2021/03/19 03:52:54;;;;;;;13.88;9.30;;;;;;;;;;5117070;28;20204;-68
2021/03/19 03:55:21;;;;;;;14.43;10.00;;;;;;;;;;5117280;28;20695;-67
2021/03/19 03:57:49;;;;;;;9.63;8.63;;;;;;;;;;5116962;27;20248;-68
2021/03/19 04:00:18;;;;;;;11.15;9.55;;;;;;;;;;5116824;28;20236;-68
2021/03/19 04:02:44;;;;;;;10.93;9.60;;;;;;;;;;5116376;28;20288;-67
2021/03/19 04:05:12;;;;;;;13.48;9.00;;;;;;;;;;5117237;28;20333;-67
2021/03/19 04:07:39;;;;;;;11.43;8.68;;;;;;;;;;5116576;28;20203;-67
2021/03/19 04:10:06;;;;;;;13.88;9.27;;;;;;;;;;5117319;28;20549;-67
2021/03/19 04:12:34;;;;;;;14.10;9.10;;;;;;;;;;5116221;28;20284;-68
2021/03/19 04:15:02;;;;;;;11.70;9.40;;;;;;;;;;5116172;28;20224;-68
2021/03/19 04:17:30;;;;;;;11.25;9.65;;;;;;;;;;5117190;28;20303;-68
2021/03/19 04:19:57;;;;;;;14.38;8.35;;;;;;;;;;5116594;28;20228;-67
2021/03/19 04:22:24;;;;;;;12.00;9.05;;;;;;;;;;5115986;28;20293;-67
2021/03/19 04:24:54;;;;;;;11.55;9.07;;;;;;;;;;5115990;28;20299;-67
2021/03/19 04:27:22;;;;;;;9.68;8.60;;;;;;;;;;5116271;28;20197;-67
2021/03/19 04:29:49;;;;;;;10.50;8.55;;;;;;;;;;5115849;28;20280;-68
2021/03/19 04:32:16;;;;;;;12.77;9.60;;;;;;;;;;5116051;28;20725;-69
2021/03/19 04:34:43;;;;;;;11.90;8.48;;;;;;;;;;5116122;28;20287;-68
2021/03/19 04:37:11;;;;;;;9.30;8.40;;;;;;;;;;5115990;28;20224;-67
2021/03/19 04:39:41;;;;;;;9.90;8.90;;;;;;;;;;5116052;27;20192;-67
2021/03/19 04:42:08;;;;;;;11.07;8.85;;;;;;;;;;5115970;28;20646;-68
2021/03/19 04:44:37;;;;;;;12.80;9.50;;;;;;;;;;5115899;28;20288;-67
2021/03/19 04:47:05;;;;;;;9.50;8.52;;;;;;;;;;5115826;28;20253;-67
2021/03/19 04:49:32;;;;;;;11.18;9.05;;;;;;;;;;5115913;28;20193;-67
2021/03/19 04:51:59;;;;;;;9.45;8.55;;;;;;;;;;5115819;28;20288;-67
2021/03/19 04:54:26;;;;;;;16.05;10.95;;;;;;;;;;5115671;28;20201;-67
2021/03/19 04:56:53;;;;;;;9.48;7.95;;;;;;;;;;5115291;28;20749;-68
2021/03/19 04:59:20;;;;;;;9.52;8.50;;;;;;;;;;5115328;28;20228;-67
2021/03/19 05:01:47;;;;;;;9.32;8.30;;;;;;;;;;5115177;28;20193;-67
2021/03/19 05:04:14;;;;;;;11.07;9.07;;;;;;;;;;5115146;28;20204;-69
2021/03/19 05:06:42;;;;;;;12.80;8.07;;;;;;;;;;5115156;28;20228;-67
2021/03/19 05:09:09;;;;;;;9.95;7.53;;;;;;;;;;5115130;28;20204;-68
2021/03/19 05:11:36;;;;;;;9.52;8.52;;;;;;;;;;5115358;28;20236;-66
2021/03/19 05:14:03;;;;;;;12.52;8.60;;;;;;;;;;5115028;28;20197;-66
2021/03/19 05:16:29;;;;;;;10.20;8.75;;;;;;;;;;5114961;28;20224;-66
2021/03/19 05:18:56;;;;;;;9.90;8.52;;;;;;;;;;5115770;28;20287;-67
2021/03/19 05:21:23;;;;;;;16.85;8.32;;;;;;;;;;5115263;28;20306;-67
2021/03/19 05:23:51;;;;;;;9.25;8.35;;;;;;;;;;5115634;28;20284;-67
2021/03/19 05:26:17;;;;;;;9.27;8.38;;;;;;;;;;5115558;28;20725;-65
2021/03/19 05:28:44;;;;;;;17.40;9.68;;;;;;;;;;5115492;28;20280;-65
2021/03/19 05:31:11;;;;;;;12.60;9.27;;;;;;;;;;5114774;28;20697;-65
2021/03/19 05:33:43;;;;;;;13.95;8.35;;;;;;;;;;5113536;28;20283;-64
2021/03/19 05:36:11;;;;;;;9.95;9.05;;;;;;;;;;5114260;28;20224;-64
2021/03/19 05:38:37;;;;;;;10.07;8.57;;;;;;;;;;5113972;28;20309;-64
2021/03/19 05:41:05;;;;;;;9.27;8.48;;;;;;;;;;5114283;28;20295;-64
2021/03/19 05:43:35;;;;;;;11.07;9.15;;;;;;;;;;5113358;28;20283;-64
2021/03/19 05:46:04;;;;;;;9.40;8.30;;;;;;;;;;5114469;28;20200;-64
2021/03/19 05:48:48;;;;;;;15.63;8.20;;;;;;;;;;5115121;28;20201;-64
2021/03/19 05:51:21;;;;;;;12.88;8.23;;;;;;;;;;5114302;28;20188;-65
2021/03/19 05:53:53;;;;;;;9.38;8.05;;;;;;;;;;5113882;28;20188;-64
2021/03/19 05:56:23;;;;;;;9.40;7.60;;;;;;;;;;5112701;28;20339;-64
2021/03/19 05:58:49;;;;;;;12.85;8.07;;;;;;;;;;5113715;28;20227;-65
2021/03/19 06:01:16;;;;;;;9.18;8.23;;;;;;;;;;5113846;27;20228;-64
2021/03/19 06:03:45;;;;;;;7.72;7.03;;;;;;;;;;5113322;28;20231;-65
2021/03/19 06:06:12;;;;;;;14.68;8.18;;;;;;;;;;5112750;28;20206;-65
2021/03/19 06:08:39;;;;;;;10.13;8.52;;;;;;;;;;5113865;28;20239;-66
2021/03/19 06:11:11;;;;;;;8.15;7.28;;;;;;;;;;5114251;28;20195;-65
2021/03/19 06:13:50;;;;;;;9.48;7.85;;;;;;;;;;5114032;28;20713;-66
2021/03/19 06:16:26;;;;;;;8.68;7.70;;;;;;;;;;5114348;28;20263;-66
2021/03/19 06:18:54;;;;;;;8.18;7.38;;;;;;;;;;5113987;28;20300;-66
2021/03/19 06:21:24;;;;;;;9.75;7.70;;;;;;;;;;5113516;27;20228;-65
2021/03/19 06:24:01;;;;;;;13.60;7.00;;;;;;;;;;5114052;28;20196;-65
2021/03/19 06:26:29;;;;;;;8.82;6.43;;;;;;;;;;5113228;28;20279;-65
2021/03/19 06:29:06;;;;;;;8.32;7.53;;;;;;;;;;5112941;28;20197;-66
2021/03/19 06:31:34;;;;;;;9.13;6.78;;;;;;;;;;5113358;28;20262;-66
2021/03/19 06:34:12;;;;;;;8.63;6.82;;;;;;;;;;5112569;28;20200;-65
2021/03/19 06:36:53;;;;;;;10.85;7.50;;;;;;;;;;5093150;28;20215;-65
2021/03/19 06:39:24;;;;;;;10.30;7.13;;;;;;;;;;5093079;28;20197;-65
2021/03/19 06:42:13;;;;;;;7.90;7.07;;;;;;;;;;5093060;28;20197;-65
2021/03/19 06:44:41;;;;;;;12.20;6.20;;;;;;;;;;5092675;28;20234;-65
2021/03/19 06:47:09;;;;;;;14.27;6.65;;;;;;;;;;5091898;28;20336;-65
2021/03/19 06:49:53;;;;;;;7.72;6.80;;;;;;;;;;5092086;28;20204;-65
2021/03/19 06:52:25;;;;;;;7.53;6.82;;;;;;;;;;5092714;28;20695;-65
2021/03/19 06:54:54;;;;;;;9.90;7.13;;;;;;;;;;5093620;28;20700;-66
2021/03/19 06:57:22;;;;;;;7.30;6.30;;;;;;;;;;5093008;28;20228;-65
2021/03/19 06:59:50;;;;;;;7.22;6.53;;;;;;;;;;5093657;28;20198;-66
2021/03/19 07:02:35;;;;;;;10.38;7.95;;;;;;;;;;5093138;28;20347;-64
2021/03/19 07:05:03;;;;;;;6.22;5.65;;;;;;;;;;5092785;28;20284;-64
2021/03/19 07:07:50;;;;;;;7.28;6.47;;;;;;;;;;5093098;28;20225;-63
2021/03/19 07:10:26;;;;;;;6.95;6.25;;;;;;;;;;5092865;28;20217;-63
2021/03/19 07:12:56;;;;;;;7.07;5.60;;;;;;;;;;5092960;28;20181;-64
2021/03/19 07:15:30;;;;;;;6.90;6.20;;;;;;;;;;5092848;28;20247;-64
2021/03/19 07:17:58;;;;;;;7.30;6.68;;;;;;;;;;5093300;28;20654;-63
2021/03/19 07:20:46;;;;;;;6.95;6.35;;;;;;;;;;5097229;28;20204;-63
2021/03/19 07:23:15;;;;;;;10.43;6.63;;;;;;;;;;5093852;28;20303;-63
2021/03/19 07:25:59;;;;;;;6.35;5.75;;;;;;;;;;5096816;28;20202;-64
2021/03/19 07:28:41;;;;;;;11.45;6.30;;;;;;;;;;5097402;28;20190;-63
2021/03/19 07:31:16;;;;;;;7.22;5.38;;;;;;;;;;5073964;28;20190;-63
2021/03/19 07:33:58;;;;;;;6.95;5.80;;;;;;;;;;5097074;28;20280;-64
2021/03/19 07:36:32;;;;;;;6.80;5.82;;;;;;;;;;5096367;28;20181;-63
2021/03/19 07:39:09;;;;;;;14.02;6.25;;;;;;;;;;5096393;28;20269;-63
2021/03/19 07:41:50;;;;;;;5.70;4.88;;;;;;;;;;5096867;28;20268;-63
2021/03/19 07:44:26;;;;;;;8.88;5.10;;;;;;;;;;5096720;28;20270;-63
2021/03/19 07:47:00;;;;;;;13.05;5.90;;;;;;;;;;5097087;28;20545;-64
2021/03/19 07:49:44;;;;;;;5.70;5.10;;;;;;;;;;5096304;28;20652;-64
2021/03/19 07:52:16;;;;;;;15.75;9.90;;;;;;;;;;5096437;28;20186;-64
2021/03/19 07:54:47;;;;;;;10.52;6.00;;;;;;;;;;5096424;28;20275;-63
2021/03/19 07:57:20;;;;;;;6.40;5.80;;;;;;;;;;5096091;28;20663;-64
2021/03/19 07:59:51;;;;;;;10.07;6.40;;;;;;;;;;5096150;28;20278;-63
2021/03/19 08:02:29;;;;;;;5.72;5.22;;;;;;;;;;5097074;28;20269;-64
2021/03/19 08:05:02;;;;;;;6.03;4.60;;;;;;;;;;5096339;28;20221;-64
2021/03/19 08:07:34;;;;;;;4.55;4.03;;;;;;;;;;5096494;28;20186;-63
2021/03/19 08:10:04;;;;;;;4.70;4.05;;;;;;;;;;5096408;28;20178;-64
2021/03/19 08:12:35;;;;;;;5.22;4.72;;;;;;;;;;5096177;28;20309;-64
2021/03/19 08:15:05;;;;;;;5.38;4.60;;;;;;;;;;5095963;28;20255;-63
2021/03/19 08:17:41;;;;;;;6.55;4.85;;;;;;;;;;5096069;28;20218;-63
2021/03/19 08:20:32;;;;;;;8.05;5.15;;;;;;;;;;5095699;28;20186;-63
2021/03/19 08:23:03;;;;;;;6.22;4.90;;;;;;;;;;5096019;28;20196;-63
2021/03/19 08:25:38;;;;;;;4.28;3.88;;;;;;;;;;5095626;28;20189;-64
2021/03/19 08:28:14;;;;;;;4.75;3.97;;;;;;;;;;5095588;28;20220;-64
2021/03/19 08:30:53;;;;;;;4.90;4.40;;;;;;;;;;5095057;28;20185;-63
2021/03/19 08:33:32;;;;;;;8.65;4.50;;;;;;;;;;5095543;28;20190;-64
2021/03/19 08:36:01;;;;;;;5.97;3.95;;;;;;;;;;5095779;28;20232;-64
2021/03/19 08:38:32;;;;;;;4.50;4.10;;;;;;;;;;5095522;28;20313;-64
2021/03/19 08:41:00;;;;;;;7.50;3.45;;;;;;;;;;5095399;28;20189;-64
2021/03/19 08:43:30;;;;;;;4.60;4.18;;;;;;;;;;5095378;28;20236;-64
2021/03/19 08:46:02;;;;;;;5.70;3.90;;;;;;;;;;5095530;28;20209;-65
2021/03/19 08:48:38;;;;;;;4.03;3.72;;;;;;;;;;5096057;28;20221;-64
2021/03/19 08:51:20;;;;;;;4.95;4.10;;;;;;;;;;5095300;28;20177;-64
2021/03/19 08:54:15;;;;;;;4.60;3.30;;;;;;;;;;5095816;28;20190;-63
2021/03/19 08:56:43;;;;;;;3.80;3.35;;;;;;;;;;5095362;28;20230;-64
2021/03/19 08:59:10;;;;;;;3.90;3.40;;;;;;;;;;5096676;28;20281;-64
2021/03/19 09:01:48;;;;;;;3.40;3.10;;;;;;;;;;5094907;28;20229;-64
2021/03/19 09:04:16;;;;;;;3.58;2.90;;;;;;;;;;5095143;28;20202;-64
2021/03/19 09:06:58;;;;;;;4.40;2.70;;;;;;;;;;5095589;28;20204;-64
2021/03/19 09:09:37;;;;;;;3.33;2.72;;;;;;;;;;5094890;28;20281;-64
2021/03/19 09:12:12;;;;;;;6.90;3.75;;;;;;;;;;5095241;28;20196;-63
2021/03/19 09:14:45;;;;;;;3.33;2.53;;;;;;;;;;5094632;28;20693;-63
2021/03/19 09:17:26;;;;;;;3.70;3.05;;;;;;;;;;5095008;28;20293;-63
2021/03/19 09:20:02;;;;;;;3.92;2.53;;;;;;;;;;5086390;28;20226;-63
2021/03/19 09:22:34;;;;;;;2.60;2.33;;;;;;;;;;5095229;28;20237;-63
2021/03/19 09:25:21;;;;;;;3.25;2.85;;;;;;;;;;5094837;28;20286;-63
2021/03/19 09:27:49;;;;;;;2.28;2.08;;;;;;;;;;5094901;28;20204;-63
2021/03/19 09:30:24;;;;;;;4.35;2.55;;;;;;;;;;5094660;28;20194;-63
2021/03/19 09:32:52;;;;;;;2.35;2.15;;;;;;;;;;5094730;28;20274;-63
2021/03/19 09:35:42;;;;;;;1.77;1.65;;;;;;;;;;5094609;28;20225;-65
2021/03/19 09:38:14;;;;;;;3.15;2.20;;;;;;;;;;5084164;28;20306;-64
2021/03/19 09:40:44;;;;;;;2.13;1.90;;;;;;;;;;5093753;28;20703;-63
2021/03/19 09:43:32;;;;;;;3.58;2.22;;;;;;;;;;5094093;28;20678;-64
2021/03/19 09:46:04;;;;;;;2.20;1.85;;;;;;;;;;5094025;28;20217;-63
2021/03/19 09:48:33;;;;;;;1.92;1.77;;;;;;;;;;5094684;28;20225;-63
2021/03/19 09:51:17;;;;;;;2.92;1.65;;;;;;;;;;5094244;28;20277;-63
2021/03/19 09:53:43;;;;;;;1.92;1.83;;;;;;;;;;5093910;28;20221;-64
2021/03/19 09:56:21;;;;;;;2.28;1.70;;;;;;;;;;5093941;28;20560;-63
2021/03/19 09:58:49;;;;;;;2.30;2.10;;;;;;;;;;5093653;28;20217;-63
2021/03/19 10:01:20;;;;;;;3.40;2.10;;;;;;;;;;5093766;28;20243;-64
2021/03/19 10:03:47;;;;;;;3.08;2.28;;;;;;;;;;5093860;28;20186;-64
2021/03/19 10:06:18;;;;;;;1.70;1.60;;;;;;;;;;5093615;28;20293;-63
2021/03/19 10:08:45;;;;;;;2.25;2.05;;;;;;;;;;5094558;28;20233;-63
2021/03/19 10:11:13;;;;;;;1.80;1.70;;;;;;;;;;5093600;28;20236;-63
2021/03/19 10:13:40;;;;;;;2.10;2.00;;;;;;;;;;5093634;28;20226;-63
2021/03/19 10:16:07;;;;;;;2.75;1.80;;;;;;;;;;5093609;28;20679;-63
2021/03/19 10:18:37;;;;;;;1.70;1.60;;;;;;;;;;5093471;28;20225;-63
2021/03/19 10:21:05;;;;;;;1.88;1.77;;;;;;;;;;5093842;28;20229;-63
2021/03/19 10:23:33;;;;;;;2.75;1.92;;;;;;;;;;5093885;28;20218;-64
2021/03/19 10:26:07;;;;;;;2.88;2.20;;;;;;;;;;5093751;28;20582;-64
2021/03/19 10:28:34;;;;;;;2.08;1.60;;;;;;;;;;5093712;28;20205;-63
2021/03/19 10:31:03;;;;;;;2.40;2.20;;;;;;;;;;5093353;28;20197;-63
2021/03/19 10:33:33;;;;;;;1.92;1.83;;;;;;;;;;5093778;28;20261;-64
2021/03/19 10:36:02;;;;;;;2.53;1.65;;;;;;;;;;5093230;28;20209;-64
2021/03/19 10:38:40;;;;;;;5.70;3.67;;;;;;;;;;5093300;28;20271;-63
2021/03/19 10:41:10;;;;;;;4.60;2.05;;;;;;;;;;5093210;28;20183;-64
2021/03/19 10:43:43;;;;;;;1.70;1.60;;;;;;;;;;5093015;28;20182;-63
2021/03/19 10:46:13;;;;;;;2.75;2.15;;;;;;;;;;5093184;28;20178;-63
2021/03/19 10:48:43;;;;;;;1.92;1.83;;;;;;;;;;5093538;28;20194;-64
2021/03/19 10:51:19;;;;;;;1.67;1.50;;;;;;;;;;5093335;28;20251;-65
2021/03/19 10:53:49;;;;;;;3.05;1.70;;;;;;;;;;5093938;28;20189;-64
2021/03/19 10:56:17;;;;;;;4.60;4.20;;;;;;;;;;5093373;28;20665;-63
2021/03/19 10:58:46;;;;;;;4.25;1.90;;;;;;;;;;5093871;28;20256;-63
2021/03/19 11:01:36;;;;;;;2.00;1.80;;;;;;;;;;5093673;28;20202;-64
2021/03/19 11:04:05;;;;;;;1.75;1.65;;;;;;;;;;5093448;28;20196;-64
2021/03/19 11:06:37;;;;;;;2.97;1.92;;;;;;;;;;5093571;28;20194;-64
2021/03/19 11:09:11;;;;;;;3.20;2.88;;;;;;;;;;5093221;28;20210;-63
2021/03/19 11:11:39;;;;;;;2.53;1.70;;;;;;;;;;5093113;28;20266;-64
2021/03/19 11:14:07;;;;;;;1.20;1.20;;;;;;;;;;5093455;28;20241;-65
2021/03/19 11:16:35;;;;;;;1.50;1.40;;;;;;;;;;5093183;28;20244;-63
2021/03/19 11:19:04;;;;;;;4.35;1.88;;;;;;;;;;5093088;28;20389;-65
2021/03/19 11:21:32;;;;;;;2.38;1.85;;;;;;;;;;5093160;28;20285;-64
2021/03/19 11:24:15;;;;;;;1.40;1.30;;;;;;;;;;5092766;28;20294;-64
2021/03/19 11:26:43;;;;;;;2.28;1.70;;;;;;;;;;5093587;28;20304;-64
2021/03/19 11:29:20;;;;;;;1.77;1.67;;;;;;;;;;5092866;28;20194;-64
2021/03/19 11:32:11;;;;;;;1.83;1.73;;;;;;;;;;5093078;28;20220;-64
2021/03/19 11:34:40;;;;;;;1.77;1.67;;;;;;;;;;5082805;28;20216;-63
2021/03/19 11:37:08;;;;;;;1.50;1.40;;;;;;;;;;5093304;28;20640;-64
2021/03/19 11:39:45;;;;;;;2.42;2.10;;;;;;;;;;5092596;28;20285;-64
2021/03/19 11:42:14;;;;;;;1.70;1.60;;;;;;;;;;5093129;28;20550;-64
2021/03/19 11:44:41;;;;;;;3.00;1.90;;;;;;;;;;5092675;28;20248;-64
2021/03/19 11:47:13;;;;;;;1.95;1.33;;;;;;;;;;5092917;28;20190;-64
2021/03/19 11:49:40;;;;;;;2.95;1.75;;;;;;;;;;5092913;28;20182;-64
2021/03/19 11:52:07;;;;;;;2.65;2.45;;;;;;;;;;5092515;28;20291;-64
2021/03/19 11:54:34;;;;;;;1.60;1.50;;;;;;;;;;5092577;28;20743;-65
2021/03/19 11:57:02;;;;;;;2.13;1.92;;;;;;;;;;5092105;28;20221;-63
2021/03/19 11:59:28;;;;;;;2.55;1.90;;;;;;;;;;5093535;28;20239;-64
2021/03/19 12:01:57;;;;;;;1.70;1.50;;;;;;;;;;5092557;28;20556;-65
2021/03/19 12:04:24;;;;;;;2.08;1.75;;;;;;;;;;5093493;28;20204;-64
2021/03/19 12:06:51;;;;;;;2.30;1.90;;;;;;;;;;5095959;28;20225;-64
2021/03/19 12:09:18;;;;;;;1.73;1.63;;;;;;;;;;5096051;28;20255;-64
2021/03/19 12:11:45;;;;;;;2.42;1.98;;;;;;;;;;5096317;28;20226;-64
2021/03/19 12:14:18;;;;;;;1.50;1.40;;;;;;;;;;5096191;28;20222;-63
2021/03/19 12:16:45;;;;;;;1.85;1.60;;;;;;;;;;5096876;28;20215;-64
2021/03/19 12:19:12;;;;;;;3.15;1.60;;;;;;;;;;5096148;28;20223;-64
2021/03/19 12:21:39;;;;;;;2.55;2.00;;;;;;;;;;5095780;28;20678;-64
2021/03/19 12:24:06;;;;;;;1.73;1.58;;;;;;;;;;5096087;28;20281;-64
2021/03/19 12:26:33;;;;;;;1.75;1.55;;;;;;;;;;5095946;28;20632;-64
2021/03/19 12:29:00;;;;;;;2.10;1.70;;;;;;;;;;5095613;28;20274;-64
2021/03/19 12:31:28;;;;;;;2.17;1.55;;;;;;;;;;5095914;28;20195;-63
2021/03/19 12:33:54;;;;;;;4.68;2.20;;;;;;;;;;5095547;28;20200;-64
2021/03/19 12:36:21;;;;;;;6.40;2.33;;;;;;;;;;5095741;28;20324;-65
2021/03/19 12:38:48;;;;;;;3.70;1.85;;;;;;;;;;5096413;28;20210;-64
2021/03/19 12:41:15;;;;;;;1.85;1.75;;;;;;;;;;5095750;28;20200;-65
2021/03/19 12:43:42;;;;;;;1.70;1.60;;;;;;;;;;5096130;28;20234;-64
2021/03/19 12:46:09;;;;;;;1.92;1.48;;;;;;;;;;5095479;28;20293;-63
2021/03/19 12:48:36;;;;;;;1.63;1.42;;;;;;;;;;5095338;28;20285;-64
2021/03/19 12:51:03;;;;;;;2.88;2.70;;;;;;;;;;5095457;28;20235;-63
2021/03/19 12:53:34;;;;;;;3.80;1.90;;;;;;;;;;5095612;28;20286;-63
2021/03/19 12:56:05;;;;;;;2.78;1.75;;;;;;;;;;5095100;28;20256;-63
2021/03/19 12:58:32;;;;;;;6.07;3.85;;;;;;;;;;5095885;28;20210;-64
2021/03/19 13:00:58;;;;;;;2.95;2.17;;;;;;;;;;5095405;28;20660;-64
2021/03/19 13:03:26;;;;;;;1.95;1.75;;;;;;;;;;5095361;28;20282;-65
2021/03/19 13:05:54;;;;;;;1.77;1.67;;;;;;;;;;5095731;28;20197;-64
2021/03/19 13:08:21;;;;;;;2.22;1.70;;;;;;;;;;5095720;28;20203;-65
2021/03/19 13:10:47;;;;;;;2.35;1.80;;;;;;;;;;5095124;28;20573;-65
2021/03/19 13:13:14;;;;;;;1.77;1.67;;;;;;;;;;5095319;28;20198;-63
2021/03/19 13:15:44;;;;;;;1.92;1.75;;;;;;;;;;5095012;28;20734;-64
2021/03/19 13:18:11;;;;;;;2.85;1.80;;;;;;;;;;5094582;28;20219;-64
2021/03/19 13:20:38;;;;;;;2.05;1.83;;;;;;;;;;5094894;28;20198;-64
2021/03/19 13:23:07;;;;;;;5.35;2.22;;;;;;;;;;5094476;28;20289;-64
2021/03/19 13:25:35;;;;;;;2.40;2.20;;;;;;;;;;5094565;28;20706;-64
2021/03/19 13:28:02;;;;;;;2.45;2.25;;;;;;;;;;5094322;28;20675;-64
2021/03/19 13:30:31;;;;;;;1.80;1.70;;;;;;;;;;5094697;28;20281;-64
2021/03/19 13:32:58;;;;;;;2.10;1.63;;;;;;;;;;5094534;28;20261;-64
2021/03/19 13:35:27;;;;;;;1.95;1.80;;;;;;;;;;5094547;28;20200;-65
2021/03/19 13:37:54;;;;;;;2.45;2.25;;;;;;;;;;5094815;28;20223;-65
2021/03/19 13:40:23;;;;;;;2.10;1.90;;;;;;;;;;5094587;28;20194;-64
2021/03/19 13:42:50;;;;;;;2.00;1.90;;;;;;;;;;5094292;28;20220;-65
2021/03/19 13:45:18;;;;;;;1.95;1.60;;;;;;;;;;5093730;28;20475;-66
2021/03/19 13:47:44;;;;;;;2.10;2.00;;;;;;;;;;5094440;28;20556;-65
2021/03/19 13:50:12;;;;;;;4.65;2.35;;;;;;;;;;5094309;28;20267;-65
2021/03/19 13:52:39;;;;;;;2.15;2.05;;;;;;;;;;5094810;28;20589;-66
2021/03/19 13:55:06;;;;;;;2.13;1.98;;;;;;;;;;5094993;28;20195;-65
2021/03/19 13:57:43;;;;;;;2.33;2.13;;;;;;;;;;5094176;28;20230;-66
2021/03/19 14:00:10;;;;;;;3.00;2.75;;;;;;;;;;5094174;28;20275;-65
2021/03/19 14:02:37;;;;;;;3.50;2.58;;;;;;;;;;5094230;28;20199;-65
2021/03/19 14:05:04;;;;;;;3.30;3.00;;;;;;;;;;5094397;28;20207;-66
2021/03/19 14:07:31;;;;;;;7.32;2.88;;;;;;;;;;5094419;28;20195;-64
2021/03/19 14:09:58;;;;;;;2.80;2.60;;;;;;;;;;5093988;28;20199;-64
2021/03/19 14:12:24;;;;;;;2.83;2.63;;;;;;;;;;5101660;28;20240;-64
2021/03/19 14:14:52;;;;;;;4.00;2.15;;;;;;;;;;5113301;28;20275;-65
2021/03/19 14:17:19;;;;;;;2.72;2.53;;;;;;;;;;5113868;28;20194;-65
2021/03/19 14:19:46;;;;;;;2.33;2.22;;;;;;;;;;5113846;28;20663;-64
2021/03/19 14:22:16;;;;;;;3.72;3.00;;;;;;;;;;5114159;28;20271;-64
2021/03/19 14:24:43;;;;;;;2.65;2.45;;;;;;;;;;5113437;28;20196;-64
2021/03/19 14:27:10;;;;;;;3.33;2.55;;;;;;;;;;5113132;28;20272;-64
2021/03/19 14:29:37;;;;;;;6.95;3.03;;;;;;;;;;5113358;28;20198;-64
2021/03/19 14:32:05;;;;;;;2.58;2.38;;;;;;;;;;5113895;28;20221;-64
2021/03/19 14:34:32;;;;;;;4.10;2.22;;;;;;;;;;5113534;28;20296;-65
2021/03/19 14:37:00;;;;;;;2.67;2.45;;;;;;;;;;5113423;28;20214;-65
2021/03/19 14:39:27;;;;;;;2.55;2.35;;;;;;;;;;5113853;28;20218;-64
2021/03/19 14:41:54;;;;;;;3.17;2.30;;;;;;;;;;5111920;28;20221;-64
2021/03/19 14:44:21;;;;;;;2.70;1.70;;;;;;;;;;5113493;28;20278;-64
2021/03/19 14:46:48;;;;;;;1.70;1.60;;;;;;;;;;5113741;28;20290;-65
2021/03/19 14:49:16;;;;;;;2.40;1.73;;;;;;;;;;5114248;28;20262;-65
2021/03/19 14:51:43;;;;;;;1.77;1.67;;;;;;;;;;5113452;28;20255;-64
2021/03/19 14:54:09;;;;;;;1.70;1.60;;;;;;;;;;5112568;28;20226;-64
2021/03/19 14:56:38;;;;;;;2.47;2.28;;;;;;;;;;5113236;28;20229;-65